sensor_id;sensor_type;location;lat;lon;timestamp;P1;durP1;ratioP1;P2;durP2;ratioP2
69822;SDS011;57119;52.516;13.508;2024-02-21T00:02:04;15.83;;;5.10;;
69822;SDS011;57119;52.516;13.508;2024-02-21T00:04:29;15.97;;;4.70;;
69822;SDS011;57119;52.516;13.508;2024-02-21T00:06:55;15.05;;;4.43;;
69822;SDS011;57119;52.516;13.508;2024-02-21T00:09:20;17.20;;;4.03;;
69822;SDS011;57119;52.516;13.508;2024-02-21T00:11:45;13.87;;;3.70;;
69822;SDS011;57119;52.516;13.508;2024-02-21T00:14:11;14.73;;;4.20;;
69822;SDS011;57119;52.516;13.508;2024-02-21T00:16:36;13.57;;;4.07;;
69822;SDS011;57119;52.516;13.508;2024-02-21T00:19:02;13.97;;;3.93;;
69822;SDS011;57119;52.516;13.508;2024-02-21T00:21:27;18.50;;;4.13;;
69822;SDS011;57119;52.516;13.508;2024-02-21T00:23:52;16.30;;;4.50;;
69822;SDS011;57119;52.516;13.508;2024-02-21T00:26:18;14.27;;;3.90;;
69822;SDS011;57119;52.516;13.508;2024-02-21T00:28:43;18.08;;;4.72;;
69822;SDS011;57119;52.516;13.508;2024-02-21T00:31:10;17.07;;;3.97;;
69822;SDS011;57119;52.516;13.508;2024-02-21T00:33:35;14.15;;;4.10;;
69822;SDS011;57119;52.516;13.508;2024-02-21T00:36:01;17.43;;;3.80;;
69822;SDS011;57119;52.516;13.508;2024-02-21T00:38:26;19.17;;;4.53;;
69822;SDS011;57119;52.516;13.508;2024-02-21T00:40:51;18.53;;;3.60;;
69822;SDS011;57119;52.516;13.508;2024-02-21T00:43:17;15.07;;;3.90;;
69822;SDS011;57119;52.516;13.508;2024-02-21T00:45:42;15.30;;;3.92;;
69822;SDS011;57119;52.516;13.508;2024-02-21T00:48:07;17.10;;;4.20;;
69822;SDS011;57119;52.516;13.508;2024-02-21T00:50:33;13.67;;;3.90;;
69822;SDS011;57119;52.516;13.508;2024-02-21T00:52:58;14.33;;;3.70;;
69822;SDS011;57119;52.516;13.508;2024-02-21T00:55:23;14.17;;;4.17;;
69822;SDS011;57119;52.516;13.508;2024-02-21T00:57:49;16.47;;;4.23;;
69822;SDS011;57119;52.516;13.508;2024-02-21T01:00:14;20.00;;;4.40;;
69822;SDS011;57119;52.516;13.508;2024-02-21T01:02:40;15.67;;;3.70;;
69822;SDS011;57119;52.516;13.508;2024-02-21T01:05:06;17.55;;;3.78;;
69822;SDS011;57119;52.516;13.508;2024-02-21T01:07:32;12.23;;;3.43;;
69822;SDS011;57119;52.516;13.508;2024-02-21T01:09:57;15.35;;;4.10;;
69822;SDS011;57119;52.516;13.508;2024-02-21T01:12:22;17.23;;;3.73;;
69822;SDS011;57119;52.516;13.508;2024-02-21T01:14:48;12.93;;;3.10;;
69822;SDS011;57119;52.516;13.508;2024-02-21T01:17:14;13.90;;;3.10;;
69822;SDS011;57119;52.516;13.508;2024-02-21T01:19:40;15.10;;;3.70;;
69822;SDS011;57119;52.516;13.508;2024-02-21T01:22:05;15.00;;;3.33;;
69822;SDS011;57119;52.516;13.508;2024-02-21T01:24:30;14.40;;;3.33;;
69822;SDS011;57119;52.516;13.508;2024-02-21T01:26:56;14.20;;;3.57;;
69822;SDS011;57119;52.516;13.508;2024-02-21T01:29:21;13.97;;;3.00;;
69822;SDS011;57119;52.516;13.508;2024-02-21T01:31:46;13.63;;;2.73;;
69822;SDS011;57119;52.516;13.508;2024-02-21T01:34:12;12.63;;;3.47;;
69822;SDS011;57119;52.516;13.508;2024-02-21T01:36:38;14.73;;;4.15;;
69822;SDS011;57119;52.516;13.508;2024-02-21T01:39:03;15.67;;;3.50;;
69822;SDS011;57119;52.516;13.508;2024-02-21T01:41:31;14.90;;;3.20;;
69822;SDS011;57119;52.516;13.508;2024-02-21T01:43:57;16.30;;;4.00;;
69822;SDS011;57119;52.516;13.508;2024-02-21T01:46:23;13.40;;;2.80;;
69822;SDS011;57119;52.516;13.508;2024-02-21T01:48:53;16.27;;;3.57;;
69822;SDS011;57119;52.516;13.508;2024-02-21T01:51:19;14.45;;;3.28;;
69822;SDS011;57119;52.516;13.508;2024-02-21T01:53:44;13.03;;;2.90;;
69822;SDS011;57119;52.516;13.508;2024-02-21T01:56:10;10.67;;;3.03;;
69822;SDS011;57119;52.516;13.508;2024-02-21T01:58:38;11.30;;;3.28;;
69822;SDS011;57119;52.516;13.508;2024-02-21T02:01:05;13.43;;;3.85;;
69822;SDS011;57119;52.516;13.508;2024-02-21T02:03:31;12.52;;;3.10;;
69822;SDS011;57119;52.516;13.508;2024-02-21T02:05:56;13.67;;;3.20;;
69822;SDS011;57119;52.516;13.508;2024-02-21T02:08:22;14.60;;;3.30;;
69822;SDS011;57119;52.516;13.508;2024-02-21T02:10:48;14.95;;;4.13;;
69822;SDS011;57119;52.516;13.508;2024-02-21T02:13:14;14.73;;;3.37;;
69822;SDS011;57119;52.516;13.508;2024-02-21T02:15:46;14.57;;;3.53;;
69822;SDS011;57119;52.516;13.508;2024-02-21T02:18:13;15.98;;;3.35;;
69822;SDS011;57119;52.516;13.508;2024-02-21T02:20:39;16.02;;;4.35;;
69822;SDS011;57119;52.516;13.508;2024-02-21T02:23:12;16.07;;;3.13;;
69822;SDS011;57119;52.516;13.508;2024-02-21T02:25:46;17.55;;;3.67;;
69822;SDS011;57119;52.516;13.508;2024-02-21T02:28:16;16.38;;;3.53;;
69822;SDS011;57119;52.516;13.508;2024-02-21T02:30:42;13.07;;;3.22;;
69822;SDS011;57119;52.516;13.508;2024-02-21T02:33:08;19.97;;;4.00;;
69822;SDS011;57119;52.516;13.508;2024-02-21T02:35:34;10.95;;;3.45;;
69822;SDS011;57119;52.516;13.508;2024-02-21T02:38:01;12.90;;;2.63;;
69822;SDS011;57119;52.516;13.508;2024-02-21T02:40:33;15.52;;;3.55;;
69822;SDS011;57119;52.516;13.508;2024-02-21T02:42:59;10.82;;;3.20;;
69822;SDS011;57119;52.516;13.508;2024-02-21T02:45:24;16.35;;;3.83;;
69822;SDS011;57119;52.516;13.508;2024-02-21T02:47:51;12.87;;;2.83;;
69822;SDS011;57119;52.516;13.508;2024-02-21T02:50:19;13.98;;;3.88;;
69822;SDS011;57119;52.516;13.508;2024-02-21T02:52:44;13.30;;;3.13;;
69822;SDS011;57119;52.516;13.508;2024-02-21T02:55:10;12.83;;;3.30;;
69822;SDS011;57119;52.516;13.508;2024-02-21T02:57:36;18.17;;;4.03;;
69822;SDS011;57119;52.516;13.508;2024-02-21T03:00:01;13.15;;;3.60;;
69822;SDS011;57119;52.516;13.508;2024-02-21T03:02:27;12.63;;;3.90;;
69822;SDS011;57119;52.516;13.508;2024-02-21T03:04:52;12.65;;;3.63;;
69822;SDS011;57119;52.516;13.508;2024-02-21T03:07:18;14.43;;;3.37;;
69822;SDS011;57119;52.516;13.508;2024-02-21T03:09:44;17.88;;;3.55;;
69822;SDS011;57119;52.516;13.508;2024-02-21T03:12:10;17.90;;;4.00;;
69822;SDS011;57119;52.516;13.508;2024-02-21T03:14:36;12.95;;;4.10;;
69822;SDS011;57119;52.516;13.508;2024-02-21T03:17:01;18.83;;;3.40;;
69822;SDS011;57119;52.516;13.508;2024-02-21T03:19:27;14.00;;;3.58;;
69822;SDS011;57119;52.516;13.508;2024-02-21T03:21:53;15.95;;;3.10;;
69822;SDS011;57119;52.516;13.508;2024-02-21T03:24:19;17.17;;;4.20;;
69822;SDS011;57119;52.516;13.508;2024-02-21T03:26:45;19.30;;;4.20;;
69822;SDS011;57119;52.516;13.508;2024-02-21T03:29:13;17.60;;;4.18;;
69822;SDS011;57119;52.516;13.508;2024-02-21T03:31:39;18.45;;;4.38;;
69822;SDS011;57119;52.516;13.508;2024-02-21T03:34:05;19.77;;;4.43;;
69822;SDS011;57119;52.516;13.508;2024-02-21T03:36:30;20.60;;;4.17;;
69822;SDS011;57119;52.516;13.508;2024-02-21T03:38:56;15.20;;;4.03;;
69822;SDS011;57119;52.516;13.508;2024-02-21T03:41:21;11.88;;;4.18;;
69822;SDS011;57119;52.516;13.508;2024-02-21T03:43:47;18.67;;;3.97;;
69822;SDS011;57119;52.516;13.508;2024-02-21T03:46:12;16.57;;;4.40;;
69822;SDS011;57119;52.516;13.508;2024-02-21T03:48:38;15.60;;;4.63;;
69822;SDS011;57119;52.516;13.508;2024-02-21T03:51:06;19.27;;;4.18;;
69822;SDS011;57119;52.516;13.508;2024-02-21T03:53:31;17.93;;;4.90;;
69822;SDS011;57119;52.516;13.508;2024-02-21T03:55:57;16.40;;;5.47;;
69822;SDS011;57119;52.516;13.508;2024-02-21T03:58:27;18.52;;;5.47;;
69822;SDS011;57119;52.516;13.508;2024-02-21T04:00:53;19.67;;;4.67;;
69822;SDS011;57119;52.516;13.508;2024-02-21T04:03:18;17.67;;;4.90;;
69822;SDS011;57119;52.516;13.508;2024-02-21T04:05:44;13.40;;;5.33;;
69822;SDS011;57119;52.516;13.508;2024-02-21T04:08:10;15.68;;;4.40;;
69822;SDS011;57119;52.516;13.508;2024-02-21T04:10:35;15.93;;;4.63;;
69822;SDS011;57119;52.516;13.508;2024-02-21T04:13:00;17.37;;;5.57;;
69822;SDS011;57119;52.516;13.508;2024-02-21T04:15:26;16.73;;;4.30;;
69822;SDS011;57119;52.516;13.508;2024-02-21T04:17:51;20.60;;;5.37;;
69822;SDS011;57119;52.516;13.508;2024-02-21T04:20:18;17.83;;;5.40;;
69822;SDS011;57119;52.516;13.508;2024-02-21T04:22:43;17.20;;;5.20;;
69822;SDS011;57119;52.516;13.508;2024-02-21T04:25:09;18.20;;;4.80;;
69822;SDS011;57119;52.516;13.508;2024-02-21T04:27:36;19.23;;;5.65;;
69822;SDS011;57119;52.516;13.508;2024-02-21T04:30:01;19.63;;;4.88;;
69822;SDS011;57119;52.516;13.508;2024-02-21T04:32:27;16.30;;;4.17;;
69822;SDS011;57119;52.516;13.508;2024-02-21T04:34:53;18.48;;;5.07;;
69822;SDS011;57119;52.516;13.508;2024-02-21T04:37:18;19.33;;;5.57;;
69822;SDS011;57119;52.516;13.508;2024-02-21T04:39:45;19.95;;;5.22;;
69822;SDS011;57119;52.516;13.508;2024-02-21T04:42:10;14.43;;;4.47;;
69822;SDS011;57119;52.516;13.508;2024-02-21T04:44:35;13.03;;;4.77;;
69822;SDS011;57119;52.516;13.508;2024-02-21T04:47:01;16.87;;;4.73;;
69822;SDS011;57119;52.516;13.508;2024-02-21T04:49:28;17.23;;;5.07;;
69822;SDS011;57119;52.516;13.508;2024-02-21T04:51:53;16.57;;;4.37;;
69822;SDS011;57119;52.516;13.508;2024-02-21T04:54:19;15.43;;;4.80;;
69822;SDS011;57119;52.516;13.508;2024-02-21T04:56:44;18.30;;;4.97;;
69822;SDS011;57119;52.516;13.508;2024-02-21T04:59:09;17.57;;;4.53;;
69822;SDS011;57119;52.516;13.508;2024-02-21T05:01:35;17.60;;;5.47;;
69822;SDS011;57119;52.516;13.508;2024-02-21T05:04:00;20.93;;;5.47;;
69822;SDS011;57119;52.516;13.508;2024-02-21T05:06:25;16.43;;;4.90;;
69822;SDS011;57119;52.516;13.508;2024-02-21T05:08:51;19.50;;;4.93;;
69822;SDS011;57119;52.516;13.508;2024-02-21T05:11:16;14.90;;;4.93;;
69822;SDS011;57119;52.516;13.508;2024-02-21T05:13:42;17.83;;;5.35;;
69822;SDS011;57119;52.516;13.508;2024-02-21T05:16:07;19.40;;;4.83;;
69822;SDS011;57119;52.516;13.508;2024-02-21T05:18:32;16.90;;;4.13;;
69822;SDS011;57119;52.516;13.508;2024-02-21T05:20:58;24.07;;;5.80;;
69822;SDS011;57119;52.516;13.508;2024-02-21T05:23:24;15.35;;;4.78;;
69822;SDS011;57119;52.516;13.508;2024-02-21T05:25:49;20.47;;;4.60;;
69822;SDS011;57119;52.516;13.508;2024-02-21T05:28:16;16.25;;;5.25;;
69822;SDS011;57119;52.516;13.508;2024-02-21T05:30:41;21.43;;;4.63;;
69822;SDS011;57119;52.516;13.508;2024-02-21T05:33:08;19.77;;;5.63;;
69822;SDS011;57119;52.516;13.508;2024-02-21T05:35:33;20.77;;;5.40;;
69822;SDS011;57119;52.516;13.508;2024-02-21T05:37:59;15.87;;;4.97;;
69822;SDS011;57119;52.516;13.508;2024-02-21T05:40:25;18.47;;;5.30;;
69822;SDS011;57119;52.516;13.508;2024-02-21T05:42:50;18.67;;;5.07;;
69822;SDS011;57119;52.516;13.508;2024-02-21T05:45:17;21.27;;;5.60;;
69822;SDS011;57119;52.516;13.508;2024-02-21T05:47:42;18.80;;;5.73;;
69822;SDS011;57119;52.516;13.508;2024-02-21T05:50:08;17.08;;;5.50;;
69822;SDS011;57119;52.516;13.508;2024-02-21T05:52:34;19.83;;;5.47;;
69822;SDS011;57119;52.516;13.508;2024-02-21T05:55:00;16.50;;;4.87;;
69822;SDS011;57119;52.516;13.508;2024-02-21T05:57:25;17.23;;;5.33;;
69822;SDS011;57119;52.516;13.508;2024-02-21T05:59:51;15.73;;;5.53;;
69822;SDS011;57119;52.516;13.508;2024-02-21T06:02:16;20.53;;;5.23;;
69822;SDS011;57119;52.516;13.508;2024-02-21T06:04:41;17.13;;;4.73;;
69822;SDS011;57119;52.516;13.508;2024-02-21T06:07:07;21.40;;;5.33;;
69822;SDS011;57119;52.516;13.508;2024-02-21T06:09:33;17.55;;;5.10;;
69822;SDS011;57119;52.516;13.508;2024-02-21T06:11:58;18.43;;;4.50;;
69822;SDS011;57119;52.516;13.508;2024-02-21T06:14:24;20.27;;;5.13;;
69822;SDS011;57119;52.516;13.508;2024-02-21T06:16:49;23.10;;;4.90;;
69822;SDS011;57119;52.516;13.508;2024-02-21T06:19:15;21.63;;;4.60;;
69822;SDS011;57119;52.516;13.508;2024-02-21T06:21:40;20.27;;;5.40;;
69822;SDS011;57119;52.516;13.508;2024-02-21T06:24:06;13.63;;;5.67;;
69822;SDS011;57119;52.516;13.508;2024-02-21T06:26:31;20.95;;;6.53;;
69822;SDS011;57119;52.516;13.508;2024-02-21T06:28:56;19.27;;;5.20;;
69822;SDS011;57119;52.516;13.508;2024-02-21T06:31:22;16.07;;;5.07;;
69822;SDS011;57119;52.516;13.508;2024-02-21T06:33:47;24.37;;;5.80;;
69822;SDS011;57119;52.516;13.508;2024-02-21T06:36:13;15.57;;;5.68;;
69822;SDS011;57119;52.516;13.508;2024-02-21T06:38:38;15.73;;;5.20;;
69822;SDS011;57119;52.516;13.508;2024-02-21T06:41:04;16.67;;;5.17;;
69822;SDS011;57119;52.516;13.508;2024-02-21T06:43:29;20.17;;;5.73;;
69822;SDS011;57119;52.516;13.508;2024-02-21T06:45:54;19.45;;;5.28;;
69822;SDS011;57119;52.516;13.508;2024-02-21T06:48:21;13.93;;;4.87;;
69822;SDS011;57119;52.516;13.508;2024-02-21T06:50:47;17.00;;;5.57;;
69822;SDS011;57119;52.516;13.508;2024-02-21T06:53:13;16.80;;;5.53;;
69822;SDS011;57119;52.516;13.508;2024-02-21T06:55:38;15.60;;;5.50;;
69822;SDS011;57119;52.516;13.508;2024-02-21T06:58:04;13.95;;;5.53;;
69822;SDS011;57119;52.516;13.508;2024-02-21T07:00:29;14.10;;;5.37;;
69822;SDS011;57119;52.516;13.508;2024-02-21T07:02:54;21.40;;;6.57;;
69822;SDS011;57119;52.516;13.508;2024-02-21T07:05:20;17.13;;;5.43;;
69822;SDS011;57119;52.516;13.508;2024-02-21T07:07:45;20.55;;;6.00;;
69822;SDS011;57119;52.516;13.508;2024-02-21T07:10:11;15.80;;;5.77;;
69822;SDS011;57119;52.516;13.508;2024-02-21T07:12:36;18.33;;;5.23;;
69822;SDS011;57119;52.516;13.508;2024-02-21T07:15:04;16.40;;;5.43;;
69822;SDS011;57119;52.516;13.508;2024-02-21T07:17:30;17.77;;;5.40;;
69822;SDS011;57119;52.516;13.508;2024-02-21T07:19:55;14.17;;;5.00;;
69822;SDS011;57119;52.516;13.508;2024-02-21T07:22:24;18.67;;;5.95;;
69822;SDS011;57119;52.516;13.508;2024-02-21T07:24:50;17.98;;;4.72;;
69822;SDS011;57119;52.516;13.508;2024-02-21T07:27:15;19.63;;;5.83;;
69822;SDS011;57119;52.516;13.508;2024-02-21T07:29:41;12.33;;;5.43;;
69822;SDS011;57119;52.516;13.508;2024-02-21T07:32:07;16.80;;;5.38;;
69822;SDS011;57119;52.516;13.508;2024-02-21T07:34:32;15.57;;;5.27;;
69822;SDS011;57119;52.516;13.508;2024-02-21T07:36:57;16.77;;;5.03;;
69822;SDS011;57119;52.516;13.508;2024-02-21T07:39:23;15.30;;;4.80;;
69822;SDS011;57119;52.516;13.508;2024-02-21T07:41:48;19.35;;;5.28;;
69822;SDS011;57119;52.516;13.508;2024-02-21T07:44:14;14.33;;;5.10;;
69822;SDS011;57119;52.516;13.508;2024-02-21T07:46:40;18.70;;;5.25;;
69822;SDS011;57119;52.516;13.508;2024-02-21T07:49:06;16.30;;;4.67;;
69822;SDS011;57119;52.516;13.508;2024-02-21T07:51:31;18.33;;;5.50;;
69822;SDS011;57119;52.516;13.508;2024-02-21T07:53:57;15.10;;;5.20;;
69822;SDS011;57119;52.516;13.508;2024-02-21T07:56:22;17.30;;;4.67;;
69822;SDS011;57119;52.516;13.508;2024-02-21T07:58:47;15.13;;;4.20;;
69822;SDS011;57119;52.516;13.508;2024-02-21T08:01:18;13.07;;;4.63;;
69822;SDS011;57119;52.516;13.508;2024-02-21T08:03:45;16.13;;;4.73;;
69822;SDS011;57119;52.516;13.508;2024-02-21T08:06:11;15.38;;;4.45;;
69822;SDS011;57119;52.516;13.508;2024-02-21T08:08:37;13.07;;;4.47;;
69822;SDS011;57119;52.516;13.508;2024-02-21T08:11:03;15.90;;;4.20;;
69822;SDS011;57119;52.516;13.508;2024-02-21T08:13:28;18.93;;;4.97;;
69822;SDS011;57119;52.516;13.508;2024-02-21T08:15:54;16.67;;;5.27;;
69822;SDS011;57119;52.516;13.508;2024-02-21T08:18:19;14.20;;;4.68;;
69822;SDS011;57119;52.516;13.508;2024-02-21T08:20:45;13.57;;;5.60;;
69822;SDS011;57119;52.516;13.508;2024-02-21T08:23:10;15.40;;;4.23;;
69822;SDS011;57119;52.516;13.508;2024-02-21T08:25:35;14.20;;;4.60;;
69822;SDS011;57119;52.516;13.508;2024-02-21T08:28:01;13.05;;;4.15;;
69822;SDS011;57119;52.516;13.508;2024-02-21T08:30:27;14.17;;;4.53;;
69822;SDS011;57119;52.516;13.508;2024-02-21T08:32:52;13.48;;;4.50;;
69822;SDS011;57119;52.516;13.508;2024-02-21T08:35:21;20.38;;;5.13;;
69822;SDS011;57119;52.516;13.508;2024-02-21T08:37:49;17.20;;;5.73;;
69822;SDS011;57119;52.516;13.508;2024-02-21T08:40:14;17.02;;;5.18;;
69822;SDS011;57119;52.516;13.508;2024-02-21T08:42:42;13.33;;;5.53;;
69822;SDS011;57119;52.516;13.508;2024-02-21T08:45:09;17.88;;;4.55;;
69822;SDS011;57119;52.516;13.508;2024-02-21T08:47:34;15.55;;;5.13;;
69822;SDS011;57119;52.516;13.508;2024-02-21T08:50:02;14.38;;;4.25;;
69822;SDS011;57119;52.516;13.508;2024-02-21T08:52:28;14.13;;;5.27;;
69822;SDS011;57119;52.516;13.508;2024-02-21T08:54:53;15.13;;;5.30;;
69822;SDS011;57119;52.516;13.508;2024-02-21T08:57:19;12.60;;;4.23;;
69822;SDS011;57119;52.516;13.508;2024-02-21T08:59:45;17.85;;;5.65;;
69822;SDS011;57119;52.516;13.508;2024-02-21T09:02:10;14.60;;;5.95;;
69822;SDS011;57119;52.516;13.508;2024-02-21T09:04:36;15.20;;;5.70;;
69822;SDS011;57119;52.516;13.508;2024-02-21T09:07:01;18.13;;;5.23;;
69822;SDS011;57119;52.516;13.508;2024-02-21T09:09:26;16.27;;;5.63;;
69822;SDS011;57119;52.516;13.508;2024-02-21T09:11:53;17.08;;;4.85;;
69822;SDS011;57119;52.516;13.508;2024-02-21T09:14:18;13.03;;;4.63;;
69822;SDS011;57119;52.516;13.508;2024-02-21T09:16:44;19.37;;;6.37;;
69822;SDS011;57119;52.516;13.508;2024-02-21T09:19:09;19.00;;;7.00;;
69822;SDS011;57119;52.516;13.508;2024-02-21T09:21:39;16.98;;;5.47;;
69822;SDS011;57119;52.516;13.508;2024-02-21T09:24:05;12.77;;;6.10;;
69822;SDS011;57119;52.516;13.508;2024-02-21T09:26:31;15.73;;;5.57;;
69822;SDS011;57119;52.516;13.508;2024-02-21T09:28:56;20.30;;;6.80;;
69822;SDS011;57119;52.516;13.508;2024-02-21T09:31:21;17.33;;;6.35;;
69822;SDS011;57119;52.516;13.508;2024-02-21T09:33:47;18.67;;;6.50;;
69822;SDS011;57119;52.516;13.508;2024-02-21T09:36:12;16.47;;;6.57;;
69822;SDS011;57119;52.516;13.508;2024-02-21T09:38:39;19.05;;;6.78;;
69822;SDS011;57119;52.516;13.508;2024-02-21T09:41:15;17.63;;;6.78;;
69822;SDS011;57119;52.516;13.508;2024-02-21T09:43:42;16.67;;;5.78;;
69822;SDS011;57119;52.516;13.508;2024-02-21T09:46:13;22.83;;;7.23;;
69822;SDS011;57119;52.516;13.508;2024-02-21T09:48:48;16.27;;;6.85;;
69822;SDS011;57119;52.516;13.508;2024-02-21T09:51:23;16.65;;;6.68;;
69822;SDS011;57119;52.516;13.508;2024-02-21T09:53:50;17.70;;;6.00;;
69822;SDS011;57119;52.516;13.508;2024-02-21T09:56:18;16.38;;;6.10;;
69822;SDS011;57119;52.516;13.508;2024-02-21T09:58:43;15.77;;;6.47;;
69822;SDS011;57119;52.516;13.508;2024-02-21T10:01:08;13.40;;;5.93;;
69822;SDS011;57119;52.516;13.508;2024-02-21T10:03:34;16.30;;;6.17;;
69822;SDS011;57119;52.516;13.508;2024-02-21T10:05:59;15.17;;;6.60;;
69822;SDS011;57119;52.516;13.508;2024-02-21T10:08:26;16.02;;;6.10;;
69822;SDS011;57119;52.516;13.508;2024-02-21T10:10:52;14.23;;;5.82;;
69822;SDS011;57119;52.516;13.508;2024-02-21T10:13:27;17.65;;;5.95;;
69822;SDS011;57119;52.516;13.508;2024-02-21T10:16:03;15.60;;;5.82;;
69822;SDS011;57119;52.516;13.508;2024-02-21T10:18:35;12.77;;;6.00;;
69822;SDS011;57119;52.516;13.508;2024-02-21T10:21:04;18.13;;;6.40;;
69822;SDS011;57119;52.516;13.508;2024-02-21T10:23:41;16.40;;;6.07;;
69822;SDS011;57119;52.516;13.508;2024-02-21T10:26:10;15.95;;;6.63;;
69822;SDS011;57119;52.516;13.508;2024-02-21T10:28:36;18.10;;;6.10;;
69822;SDS011;57119;52.516;13.508;2024-02-21T10:31:06;17.00;;;5.53;;
69822;SDS011;57119;52.516;13.508;2024-02-21T10:33:32;23.90;;;6.13;;
69822;SDS011;57119;52.516;13.508;2024-02-21T10:36:06;18.30;;;6.23;;
69822;SDS011;57119;52.516;13.508;2024-02-21T10:38:38;14.73;;;5.75;;
69822;SDS011;57119;52.516;13.508;2024-02-21T10:41:07;17.42;;;6.15;;
69822;SDS011;57119;52.516;13.508;2024-02-21T10:43:38;17.40;;;6.20;;
69822;SDS011;57119;52.516;13.508;2024-02-21T10:46:07;15.50;;;5.32;;
69822;SDS011;57119;52.516;13.508;2024-02-21T10:48:46;16.23;;;5.68;;
69822;SDS011;57119;52.516;13.508;2024-02-21T10:56:24;16.97;;;4.83;;
69822;SDS011;57119;52.516;13.508;2024-02-21T10:58:53;16.45;;;5.45;;
69822;SDS011;57119;52.516;13.508;2024-02-21T11:01:20;13.45;;;5.70;;
69822;SDS011;57119;52.516;13.508;2024-02-21T11:03:47;16.23;;;5.20;;
69822;SDS011;57119;52.516;13.508;2024-02-21T11:06:15;18.38;;;5.18;;
69822;SDS011;57119;52.516;13.508;2024-02-21T11:08:43;12.93;;;4.67;;
69822;SDS011;57119;52.516;13.508;2024-02-21T11:11:11;18.02;;;5.45;;
69822;SDS011;57119;52.516;13.508;2024-02-21T11:13:42;13.75;;;5.35;;
69822;SDS011;57119;52.516;13.508;2024-02-21T11:16:08;13.50;;;4.97;;
69822;SDS011;57119;52.516;13.508;2024-02-21T11:18:34;12.82;;;5.10;;
69822;SDS011;57119;52.516;13.508;2024-02-21T11:21:00;12.57;;;4.70;;
69822;SDS011;57119;52.516;13.508;2024-02-21T11:23:28;13.13;;;5.50;;
69822;SDS011;57119;52.516;13.508;2024-02-21T11:26:09;13.48;;;4.40;;
69822;SDS011;57119;52.516;13.508;2024-02-21T11:28:44;12.82;;;5.05;;
69822;SDS011;57119;52.516;13.508;2024-02-21T11:31:12;9.67;;;4.13;;
69822;SDS011;57119;52.516;13.508;2024-02-21T11:33:41;12.30;;;4.82;;
69822;SDS011;57119;52.516;13.508;2024-02-21T11:36:08;10.63;;;4.90;;
69822;SDS011;57119;52.516;13.508;2024-02-21T11:38:34;12.50;;;4.80;;
69822;SDS011;57119;52.516;13.508;2024-02-21T11:40:59;14.03;;;4.60;;
69822;SDS011;57119;52.516;13.508;2024-02-21T11:43:24;13.23;;;4.77;;
69822;SDS011;57119;52.516;13.508;2024-02-21T11:45:50;13.07;;;4.45;;
69822;SDS011;57119;52.516;13.508;2024-02-21T11:48:23;11.70;;;4.85;;
69822;SDS011;57119;52.516;13.508;2024-02-21T11:50:55;11.23;;;4.15;;
69822;SDS011;57119;52.516;13.508;2024-02-21T11:53:21;9.37;;;3.90;;
69822;SDS011;57119;52.516;13.508;2024-02-21T11:55:47;10.65;;;4.90;;
69822;SDS011;57119;52.516;13.508;2024-02-21T11:58:13;10.37;;;4.00;;
69822;SDS011;57119;52.516;13.508;2024-02-21T12:00:38;9.25;;;3.50;;
69822;SDS011;57119;52.516;13.508;2024-02-21T12:03:05;10.90;;;3.80;;
69822;SDS011;57119;52.516;13.508;2024-02-21T12:05:30;10.57;;;4.07;;
69822;SDS011;57119;52.516;13.508;2024-02-21T12:07:57;8.75;;;4.05;;
69822;SDS011;57119;52.516;13.508;2024-02-21T12:10:23;12.48;;;5.25;;
69822;SDS011;57119;52.516;13.508;2024-02-21T12:12:51;9.83;;;3.83;;
69822;SDS011;57119;52.516;13.508;2024-02-21T12:15:17;7.78;;;3.40;;
69822;SDS011;57119;52.516;13.508;2024-02-21T12:17:43;8.45;;;3.13;;
69822;SDS011;57119;52.516;13.508;2024-02-21T12:20:10;7.72;;;3.45;;
69822;SDS011;57119;52.516;13.508;2024-02-21T12:22:37;11.63;;;4.10;;
69822;SDS011;57119;52.516;13.508;2024-02-21T12:25:24;8.00;;;3.72;;
69822;SDS011;57119;52.516;13.508;2024-02-21T12:27:51;7.03;;;3.60;;
69822;SDS011;57119;52.516;13.508;2024-02-21T12:30:16;8.60;;;2.90;;
69822;SDS011;57119;52.516;13.508;2024-02-21T12:32:42;11.52;;;3.63;;
69822;SDS011;57119;52.516;13.508;2024-02-21T12:35:07;10.50;;;4.43;;
69822;SDS011;57119;52.516;13.508;2024-02-21T12:37:33;7.23;;;3.27;;
69822;SDS011;57119;52.516;13.508;2024-02-21T12:39:58;9.90;;;4.50;;
69822;SDS011;57119;52.516;13.508;2024-02-21T12:42:24;9.77;;;3.53;;
69822;SDS011;57119;52.516;13.508;2024-02-21T12:44:51;9.45;;;3.80;;
69822;SDS011;57119;52.516;13.508;2024-02-21T12:47:17;9.70;;;3.72;;
69822;SDS011;57119;52.516;13.508;2024-02-21T12:49:44;7.47;;;3.45;;
69822;SDS011;57119;52.516;13.508;2024-02-21T12:52:10;8.10;;;2.97;;
69822;SDS011;57119;52.516;13.508;2024-02-21T12:54:36;7.57;;;2.70;;
69822;SDS011;57119;52.516;13.508;2024-02-21T12:57:01;8.50;;;2.80;;
69822;SDS011;57119;52.516;13.508;2024-02-21T12:59:28;10.35;;;3.58;;
69822;SDS011;57119;52.516;13.508;2024-02-21T13:01:54;8.38;;;2.72;;
69822;SDS011;57119;52.516;13.508;2024-02-21T13:04:19;8.20;;;2.90;;
69822;SDS011;57119;52.516;13.508;2024-02-21T13:06:46;7.90;;;2.60;;
69822;SDS011;57119;52.516;13.508;2024-02-21T13:09:12;7.87;;;2.70;;
69822;SDS011;57119;52.516;13.508;2024-02-21T13:11:38;8.13;;;2.60;;
69822;SDS011;57119;52.516;13.508;2024-02-21T13:14:05;7.25;;;2.30;;
69822;SDS011;57119;52.516;13.508;2024-02-21T13:16:31;8.90;;;2.53;;
69822;SDS011;57119;52.516;13.508;2024-02-21T13:18:56;9.77;;;2.50;;
69822;SDS011;57119;52.516;13.508;2024-02-21T13:21:22;7.88;;;2.58;;
69822;SDS011;57119;52.516;13.508;2024-02-21T13:23:47;6.67;;;2.60;;
69822;SDS011;57119;52.516;13.508;2024-02-21T13:26:13;10.43;;;2.30;;
69822;SDS011;57119;52.516;13.508;2024-02-21T13:28:39;8.70;;;2.60;;
69822;SDS011;57119;52.516;13.508;2024-02-21T13:31:04;9.77;;;3.07;;
69822;SDS011;57119;52.516;13.508;2024-02-21T13:33:30;9.65;;;2.08;;
69822;SDS011;57119;52.516;13.508;2024-02-21T13:35:55;13.97;;;3.83;;
69822;SDS011;57119;52.516;13.508;2024-02-21T13:38:21;12.73;;;3.07;;
69822;SDS011;57119;52.516;13.508;2024-02-21T13:40:46;10.03;;;3.10;;
69822;SDS011;57119;52.516;13.508;2024-02-21T13:43:11;9.25;;;2.90;;
69822;SDS011;57119;52.516;13.508;2024-02-21T13:45:38;14.03;;;3.53;;
69822;SDS011;57119;52.516;13.508;2024-02-21T13:48:03;12.05;;;3.25;;
69822;SDS011;57119;52.516;13.508;2024-02-21T13:50:31;9.63;;;3.08;;
69822;SDS011;57119;52.516;13.508;2024-02-21T13:52:57;10.40;;;3.30;;
69822;SDS011;57119;52.516;13.508;2024-02-21T13:55:23;9.70;;;3.00;;
69822;SDS011;57119;52.516;13.508;2024-02-21T13:57:51;12.13;;;3.90;;
69822;SDS011;57119;52.516;13.508;2024-02-21T14:00:16;10.67;;;3.53;;
69822;SDS011;57119;52.516;13.508;2024-02-21T14:02:43;9.57;;;3.43;;
69822;SDS011;57119;52.516;13.508;2024-02-21T14:05:09;11.05;;;3.63;;
69822;SDS011;57119;52.516;13.508;2024-02-21T14:07:35;11.80;;;3.78;;
69822;SDS011;57119;52.516;13.508;2024-02-21T14:10:00;9.63;;;3.13;;
69822;SDS011;57119;52.516;13.508;2024-02-21T14:12:26;10.20;;;2.83;;
69822;SDS011;57119;52.516;13.508;2024-02-21T14:14:51;10.13;;;3.08;;
69822;SDS011;57119;52.516;13.508;2024-02-21T14:17:17;14.17;;;3.20;;
69822;SDS011;57119;52.516;13.508;2024-02-21T14:19:43;10.43;;;3.38;;
69822;SDS011;57119;52.516;13.508;2024-02-21T14:22:09;9.63;;;2.97;;
69822;SDS011;57119;52.516;13.508;2024-02-21T14:24:36;7.78;;;2.58;;